Pioche, Nevada Weather observations

Data are for observation ending at time listed.
 Day   Time    Ave.   Ave.  Ave.  Vector   Max.   Stn.    Total    Solar   Ave.  
  of    of     Air    Rel.  Wind   Wind    Wind   Baro.  Precip.   Rad.    Soil  
Year   Day     Temp.  Hum.  Speed  Dir.    Gust   Pres.                    Temp. 
2026   (PST)    F      %     mph   deg.    mph     mb.     in.     W/m2     F   
------------------------------------------------------------------------------
 129   15:40   78.8    12    8.3   291     18.1   819.4    0.00     113    64.9
 129   15:50   78.3    11    3.6   304      8.1   819.4    0.00     129    65.0
 129   16:00   78.7    11    5.6   290     11.8   819.4    0.00     109    65.1
 129   16:10   78.7    10    4.6   299      9.6   819.3    0.00     106    65.1
 129   16:20   78.9    10    2.0    21     11.8   819.3    0.00     125    65.2
 129   16:30   78.9    11    2.4   315      7.4   819.4    0.00     120    65.3
 129   16:40   78.9    11    6.2   297      9.8   819.4    0.00     107    65.3
 129   16:50   78.4    12    7.4   306     14.6   819.4    0.00     107    65.3
 129   17:00   77.9    12    4.3   317      9.9   819.4    0.00      91    65.4
 129   17:10   77.8    12    5.5   312     13.8   819.4    0.00      80    65.4
 129   17:20   77.6    11    5.8   302     10.5   819.5    0.00      71    65.4
 129   17:30   78.0    10    4.6   308      9.6   819.5    0.00     105    65.5
 129   17:40   78.5     9    2.6   303      9.7   819.5    0.00     160    65.5
 129   17:50   77.3     9    4.9   306      9.6   819.6    0.00     140    65.5
 129   18:00   76.7     9    4.7   303      8.2   819.7    0.00     102    65.6
 129   18:10   75.8    10    4.3   300      7.2   819.7    0.00      63    65.7
 129   18:20   74.1    11    3.9   285      6.8   819.7    0.00      27    65.8
 129   18:30   72.3    13    2.0   256      3.9   819.7    0.00      10    65.9
 129   18:40   71.2    13    2.8   260      4.9   819.8    0.00       6    65.9
 129   18:50   70.9    13    3.4   260      5.7   819.8    0.00       1    65.9
 129   19:00   71.1    13    4.8   267      7.3   819.9    0.00       0    66.0
 129   19:10   70.8    13    5.4   270      8.0   820.0    0.00       0    66.1
 129   19:20   70.4    14    5.5   270      8.2   820.1    0.00       0    66.1
 129   19:30   69.9    14    6.4   271      9.4   820.2    0.00       0    66.1
 129   19:40   69.5    14    4.9   275     10.4   820.4    0.00       0    66.1
 129   19:50   68.9    14    1.1   276      3.9   820.6    0.00       0    66.2
 129   20:00   67.8    15    1.7   275      3.1   820.8    0.00       0    66.2
 129   20:10   66.1    16    2.1   265      4.5   820.9    0.00       0    66.2
 129   20:20   65.0    16    2.1   158      5.5   821.1    0.00       0    66.2
 129   20:30   64.2    16    1.5   183      4.0   821.2    0.00       0    66.2
 129   20:40   63.3    16    3.0   192      4.7   821.2    0.00       0    66.2
 129   20:50   62.4    17    1.5   234      3.0   821.2    0.00       0    66.2
 129   21:00   62.5    16    1.2   229      3.2   821.3    0.00       0    66.2
 129   21:10   62.8    16    1.9   253      4.0   821.4    0.00       0    66.2
 129   21:20   63.5    15    2.6   260      5.1   821.4    0.00       0    66.2
 129   21:30   63.0    16    2.0   245      3.9   821.5    0.00       0    66.1
 129   21:40   63.6    16    2.5   261      5.0   821.6    0.00       0    66.1
 129   21:50   62.7    18    2.0   257      3.9   821.7    0.00       0    66.1
 129   22:00   60.2    21    1.2   244      2.6   821.7    0.00       0    66.1
 129   22:10   60.2    20    0.7   198      1.7   821.7    0.00       0    66.1
 129   22:20   60.5    20    1.2   191      2.0   821.8    0.00       0    66.1
 129   22:30   59.5    22    1.2   149      2.6   821.8    0.00       0    66.0
 129   22:40   59.6    21    1.3   154      2.3   821.9    0.00       0    66.0
 129   22:50   59.0    22    1.0   157      2.0   821.9    0.00       0    66.0
 129   23:00   58.9    22    2.0   147      3.3   822.0    0.00       0    66.0
 129   23:10   57.9    23    1.1   175      2.4   822.1    0.00       0    65.9
 129   23:20   57.6    24    1.7   158      3.9   822.1    0.00       0    65.9
 129   23:30   57.1    23    3.4   156      5.4   822.2    0.00       0    65.9
 129   23:40   56.2    28    0.9   173      2.7   822.2    0.00       0    65.9
 129   23:50   55.7    29    0.5   185      1.7   822.3    0.00       0    65.9
 130    0:00   55.7    27    1.5   271      2.8   822.3    0.00       0    65.9
 130    0:10   55.4    28    3.0   268      5.6   822.3    0.00       0    65.8
 130    0:20   56.0    25    3.9   266      6.0   822.2    0.00       0    65.8
 130    0:30   56.8    22    4.1   264      8.6   822.1    0.00       0    65.7
 130    0:40   57.5    20    5.3   270      9.0   822.2    0.00       0    65.7
 130    0:50   58.1    19    5.6   269      9.6   822.1    0.00       0    65.6
 130    1:00   58.5    18    5.8   270      8.9   822.1    0.00       0    65.6
 130    1:10   58.6    18    3.8   269      6.6   822.2    0.00       0    65.6
 130    1:20   58.4    19    4.6   270      7.1   822.2    0.00       0    65.5
 130    1:30   58.2    19    3.5   265      5.9   822.2    0.00       0    65.5
 130    1:40   58.0    19    2.2   260      4.1   822.3    0.00       0    65.5
 130    1:50   57.8    18    2.4   263      4.0   822.4    0.00       0    65.4
 130    2:00   56.7    19    0.9   262      3.2   822.4    0.00       0    65.4
 130    2:10   56.0    21    2.8   278      4.9   822.5    0.00       0    65.4
 130    2:20   55.6    20    3.2   265      5.0   822.5    0.00       0    65.3
 130    2:30   55.8    18    4.3   269      6.4   822.5    0.00       0    65.3
 130    2:40   56.1    20    3.7   268      5.8   822.5    0.00       0    65.3
 130    2:50   55.6    21    4.3   269      6.4   822.5    0.00       0    65.2
 130    3:00   56.1    19    4.1   268      6.5   822.5    0.00       0    65.2
 130    3:10   56.3    18    4.0   270      5.8   822.6    0.00       0    65.1
 130    3:20   56.4    18    3.5   266      6.1   822.6    0.00       0    65.1
 130    3:30   56.0    20    2.5   274      3.7   822.7    0.00       0    65.0
 130    3:40   54.6    23    2.9   271      4.9   822.8    0.00       0    65.0
 130    3:50   53.5    29    2.4   268      4.5   822.9    0.00       0    65.0
 130    4:00   53.4    23    2.2   275      4.1   823.0    0.00       0    64.9
 130    4:10   53.6    21    4.8   270      7.1   823.0    0.00       0    64.9
 130    4:20   54.7    19    6.1   270      9.3   823.0    0.00       0    64.8
 130    4:30   54.4    20    6.1   272      9.6   823.1    0.00       0    64.7
 130    4:40   54.8    19    6.3   272     10.5   823.1    0.00       5    64.7
 130    4:50   55.2    19    6.6   271     11.0   823.1    0.00      11    64.6
 130    5:00   55.5    18    6.8   270     11.5   823.2    0.00      16    64.6
 130    5:10   55.7    18    7.6   274     12.7   823.4    0.00      23    64.5
 130    5:20   55.8    18    8.0   277     12.2   823.4    0.00      29    64.5
 130    5:30   56.0    18    8.5   274     11.9   823.5    0.00      34    64.5
 130    5:40   56.4    18    6.8   278     11.5   823.6    0.00      38    64.4
 130    5:50   56.6    19    7.0   281     11.6   823.8    0.00      43    64.4
 130    6:00   56.9    19    6.7   279      9.9   823.9    0.00      98    64.3
 130    6:10   57.3    19    6.2   281      9.2   823.9    0.00     250    64.3
 130    6:20   58.0    19    6.0   282      9.6   824.0    0.00     174    64.3
 130    6:30   58.7    19    5.9   288      8.8   824.1    0.00     197    64.2
 130    6:40   59.6    19    5.1   288      8.6   824.1    0.00     200    64.2
 130    6:50   60.6    18    5.4   285      8.0   824.2    0.00     335    64.1
 130    7:00   61.2    18    5.5   287      8.4   824.3    0.00     493    64.1
 130    7:10   62.5    18    5.3   287      8.4   824.3    0.00     547    64.0
 130    7:20   63.9    17    4.5   288      7.4   824.4    0.00     584    64.1
 130    7:30   65.6    15    3.1   298      5.3   824.5    0.00     621    64.0
 130    7:40   67.2    13    2.0   298      4.7   824.5    0.00     658    64.0
 130    7:50   68.8    12    1.2   319      3.6   824.5    0.00     694    64.0
 130    8:00   69.8    11    1.1    36      5.0   824.6    0.00     727    64.0
 130    8:10   70.0    10    1.3   295      3.7   824.6    0.00     761    64.0
 130    8:20   69.7    10    2.1   308      4.5   824.7    0.00     793    64.0
 130    8:30   70.3    10    1.7   332      4.2   824.7    0.00     826    64.0
 130    8:40   71.1    10    2.2   126      7.2   824.7    0.00     856    64.0
 130    8:50   70.5    10    3.1   112      7.5   824.8    0.00     886    64.0
 130    9:00   70.6    10    2.3   131      6.5   824.8    0.00     914    63.9
 130    9:10   71.7    10    3.8   107     11.0   824.7    0.00     940    63.9
 130    9:20   71.1    11    4.2    97     11.5   824.7    0.00     965    63.9
 130    9:30   72.2    10    2.3    94      7.7   824.7    0.00     990    63.9
 130    9:40   72.9    10    2.7    72      7.4   824.8    0.00    1012    63.9
 130    9:50   73.5    10    2.3   349      4.3   824.8    0.00    1032    63.9
 130   10:00   74.4    10    0.9   262      3.7   824.7    0.00    1050    63.9
 130   10:10   75.3    10    2.4    82      5.8   824.7    0.00    1068    63.9
 130   10:20   74.1    10    2.9    74      9.9   824.8    0.00    1077    63.9
 130   10:30   74.7     9    2.0    90      5.8   824.7    0.00    1096    63.9
 130   10:40   75.7     9    2.6   279      6.1   824.5    0.00    1110    63.9
 130   10:50   76.0     9    2.6   322      7.5   824.4    0.00    1118    63.9
 130   11:00   76.4     9    2.4    98      6.0   824.4    0.00    1124    63.9
 130   11:10   77.6     9    4.8   290      7.8   824.3    0.00    1130    63.9
 130   11:20   77.4     9    2.8   307      7.4   824.2    0.00    1134    64.0
 130   11:30   78.2     9    2.3   301      6.1   824.1    0.00    1136    64.0
 130   11:40   78.8     9    2.1   290      6.0   824.0    0.00    1134    64.0
 130   11:50   78.9     9    2.6   311      6.3   823.9    0.00    1132    64.1
 130   12:00   78.5     9    3.1   311      9.3   823.8    0.00    1127    64.1
 130   12:10   78.8     9    1.6   299      5.6   823.7    0.00    1119    64.2
 130   12:20   79.9     9    2.3    16      7.4   823.7    0.00    1111    64.3
 130   12:30   80.2     8    1.6   306      5.7   823.7    0.00    1102    64.3
 130   12:40   79.5     9    4.9    87      9.9   823.6    0.00    1089    64.4
 130   12:50   79.7     9    2.0   349      6.3   823.6    0.00    1074    64.5
 130   13:00   80.6     9    2.2   337      6.7   823.5    0.00    1060    64.5
 130   13:10   80.9     9    5.7   293     11.6   823.4    0.00    1045    64.5
 130   13:20   80.1     9    4.2   275      8.2   823.3    0.00    1026    64.6
 130   13:30   80.2     9    5.8    80     11.2   823.3    0.00    1005    64.7
 130   13:40   80.5     9    1.8    63      6.6   823.2    0.00     985    64.8
 130   13:50   81.4     8    2.1   340      8.8   823.1    0.00     963    64.9
 130   14:00   81.7     8    2.0    85      7.6   822.8    0.00     939    65.0
 130   14:10   82.0     8    3.5   299     10.8   822.9    0.00     914    65.0
 130   14:20   81.0     8    2.8     4      8.9   822.8    0.00     888    65.1
 130   14:30   81.3     9    2.4   231      6.6   822.6    0.00     547    65.2
 130   14:40   80.7     8    3.4    94      7.2   822.6    0.00      73    65.3
 130   14:50   80.5     8    3.0   111      6.8   822.5    0.00      57    65.4
 130   15:00   80.5     8    2.9   126      7.9   822.4    0.00      51    65.5
 130   15:10   80.9     8    3.8   342     12.9   822.4    0.00      49    65.6
 130   15:20   80.3     8    2.4   283      6.9   822.4    0.00      47    65.7
 130   15:30   80.3     8    2.0   359      4.9   822.3    0.00      46    65.8

Return to Pioche, Nevada graphs page.


Western Regional Climate Center,wrcc@dri.edu